createdAt,value
2018-08-18T00:01:54.208Z,100370.00
2018-08-18T00:04:33.952Z,100379.00
2018-08-18T00:07:04.592Z,100386.00
2018-08-18T00:09:34.708Z,100385.00
2018-08-18T00:12:04.779Z,100387.00
2018-08-18T00:14:34.920Z,100389.00
2018-08-18T00:17:06.238Z,100392.00
2018-08-18T00:19:36.337Z,100393.00
2018-08-18T00:22:06.439Z,100389.00
2018-08-18T00:24:43.453Z,100388.00
2018-08-18T00:27:13.591Z,100390.00
2018-08-18T00:29:43.696Z,100391.00
2018-08-18T00:32:13.830Z,100390.00
2018-08-18T00:34:48.159Z,100385.00
2018-08-18T00:37:18.361Z,100387.00
2018-08-18T00:39:48.468Z,100388.00
2018-08-18T00:42:18.625Z,100391.00
2018-08-18T00:44:48.718Z,100389.00
2018-08-18T00:47:18.859Z,100388.00
2018-08-18T00:49:48.916Z,100391.00
2018-08-18T00:52:19.100Z,100387.00
2018-08-18T00:54:49.167Z,100386.00
2018-08-18T00:57:31.148Z,100382.00
2018-08-18T01:00:01.583Z,100388.00
2018-08-18T01:02:31.680Z,100385.00
2018-08-18T01:05:02.780Z,100394.00
2018-08-18T01:07:33.467Z,100393.00
2018-08-18T01:10:03.935Z,100396.00
2018-08-18T01:12:35.109Z,100406.00
2018-08-18T01:15:07.998Z,100401.00
2018-08-18T01:17:38.200Z,100406.00
2018-08-18T01:20:08.661Z,100408.00
2018-08-18T01:22:38.758Z,100409.00
2018-08-18T01:25:08.837Z,100411.00
2018-08-18T01:27:51.360Z,100409.00
2018-08-18T01:30:21.511Z,100411.00
2018-08-18T01:32:51.616Z,100408.00
2018-08-18T01:35:22.504Z,100403.00
2018-08-18T01:37:52.619Z,100405.00
2018-08-18T01:40:22.743Z,100408.00
2018-08-18T01:42:52.879Z,100409.00
2018-08-18T01:45:23.023Z,100416.00
2018-08-18T01:47:53.112Z,100416.00
2018-08-18T01:50:23.264Z,100415.00
2018-08-18T01:52:53.396Z,100421.00
2018-08-18T01:55:23.519Z,100413.00
2018-08-18T01:57:53.612Z,100414.00
2018-08-18T02:00:26.861Z,100414.00
2018-08-18T02:02:57.001Z,100414.00
2018-08-18T02:05:28.144Z,100414.00
2018-08-18T02:07:58.296Z,100415.00
2018-08-18T02:10:28.412Z,100413.00
2018-08-18T02:13:07.219Z,100415.00
2018-08-18T02:15:37.312Z,100417.00
2018-08-18T02:18:07.675Z,100419.00
2018-08-18T02:20:37.723Z,100421.00
2018-08-18T02:23:07.857Z,100422.00
2018-08-18T02:25:37.924Z,100422.00
2018-08-18T02:28:13.005Z,100423.00
2018-08-18T02:30:43.160Z,100423.00
2018-08-18T02:33:13.313Z,100419.00
2018-08-18T02:35:43.371Z,100422.00
2018-08-18T02:38:13.509Z,100425.00
2018-08-18T02:40:43.572Z,100425.00
2018-08-18T02:43:24.706Z,100429.00
2018-08-18T02:45:55.213Z,100431.00
2018-08-18T02:48:25.356Z,100428.00
2018-08-18T02:50:55.452Z,100432.00
2018-08-18T02:53:29.212Z,100428.00
2018-08-18T02:55:59.253Z,100434.00
2018-08-18T02:58:29.414Z,100432.00
2018-08-18T03:00:59.571Z,100437.00
2018-08-18T03:03:29.697Z,100436.00
2018-08-18T03:06:14.251Z,100437.00
2018-08-18T03:08:44.662Z,100442.00
2018-08-18T03:11:15.007Z,100440.00
2018-08-18T03:13:45.286Z,100436.00
2018-08-18T03:16:15.436Z,100439.00
2018-08-18T03:18:49.724Z,100443.00
2018-08-18T03:21:25.693Z,100445.00
2018-08-18T03:24:12.079Z,100445.00
2018-08-18T03:26:50.028Z,100446.00
2018-08-18T03:29:21.021Z,100451.00
2018-08-18T03:31:51.406Z,100450.00
2018-08-18T03:34:21.770Z,100451.00
2018-08-18T03:36:53.833Z,100449.00
2018-08-18T03:39:29.716Z,100452.00
2018-08-18T03:42:01.098Z,100455.00
2018-08-18T03:44:31.397Z,100458.00
2018-08-18T03:47:01.448Z,100456.00
2018-08-18T03:49:31.633Z,100455.00
2018-08-18T03:52:01.756Z,100455.00
2018-08-18T03:54:31.908Z,100457.00
2018-08-18T03:57:01.959Z,100458.00
2018-08-18T03:59:32.115Z,100464.00
2018-08-18T04:02:02.640Z,100477.00
2018-08-18T04:04:34.289Z,100475.00
2018-08-18T04:07:05.785Z,100479.00
2018-08-18T04:09:37.070Z,100477.00
2018-08-18T04:12:09.295Z,100478.00
2018-08-18T04:14:40.487Z,100478.00
2018-08-18T04:17:27.088Z,100479.00
2018-08-18T04:19:57.216Z,100483.00
2018-08-18T04:22:27.267Z,100481.00
2018-08-18T04:24:57.775Z,100486.00
2018-08-18T04:27:38.663Z,100484.00
2018-08-18T04:30:13.563Z,100491.00
2018-08-18T04:32:53.904Z,100493.00
2018-08-18T04:35:25.194Z,100504.00
2018-08-18T04:37:56.053Z,100511.00
2018-08-18T04:40:26.535Z,100513.00
2018-08-18T04:43:00.348Z,100517.00
2018-08-18T04:45:30.543Z,100517.00
2018-08-18T04:48:00.595Z,100515.00
2018-08-18T04:50:30.802Z,100517.00
2018-08-18T04:53:00.884Z,100522.00
2018-08-18T04:55:31.028Z,100519.00
2018-08-18T04:58:01.085Z,100516.00
2018-08-18T05:00:31.217Z,100518.00
2018-08-18T05:03:01.281Z,100520.00
2018-08-18T05:05:32.633Z,100523.00
2018-08-18T05:08:02.792Z,100517.00
2018-08-18T05:10:32.892Z,100512.00
2018-08-18T05:13:03.058Z,100515.00
2018-08-18T05:15:33.187Z,100516.00
2018-08-18T05:18:03.268Z,100515.00
2018-08-18T05:20:33.396Z,100515.00
2018-08-18T05:23:22.911Z,100515.00
2018-08-18T05:25:54.291Z,100517.00
2018-08-18T05:28:24.350Z,100514.00
2018-08-18T05:30:54.976Z,100517.00
2018-08-18T05:33:25.121Z,100527.00
2018-08-18T05:35:55.231Z,100525.00
2018-08-18T05:38:25.720Z,100525.00
2018-08-18T05:40:56.108Z,100527.00
2018-08-18T05:43:26.314Z,100520.00
2018-08-18T05:45:56.387Z,100529.00
2018-08-18T05:48:26.491Z,100528.00
2018-08-18T05:50:56.612Z,100525.00
2018-08-18T05:53:32.050Z,100520.00
2018-08-18T05:56:02.828Z,100514.00
2018-08-18T05:59:07.123Z,100522.00
2018-08-18T06:01:39.036Z,100527.00
2018-08-18T06:04:16.478Z,100529.00
2018-08-18T06:06:47.666Z,100525.00
2018-08-18T06:09:19.047Z,100520.00
2018-08-18T06:11:49.372Z,100531.00
2018-08-18T06:14:19.903Z,100532.00
2018-08-18T06:16:50.053Z,100536.00
2018-08-18T06:19:20.145Z,100537.00
2018-08-18T06:21:50.217Z,100542.00
2018-08-18T06:24:20.308Z,100549.00
2018-08-18T06:26:50.380Z,100545.00
2018-08-18T06:29:20.483Z,100548.00
2018-08-18T06:32:02.563Z,100553.00
2018-08-18T06:34:34.265Z,100557.00
2018-08-18T06:37:04.297Z,100558.00
2018-08-18T06:39:54.708Z,100559.00
2018-08-18T06:42:34.224Z,100561.00
2018-08-18T06:45:05.124Z,100563.00
2018-08-18T06:47:35.184Z,100563.00
2018-08-18T06:50:07.047Z,100563.00
2018-08-18T06:52:37.159Z,100562.00
2018-08-18T06:55:08.141Z,100570.00
2018-08-18T06:57:48.576Z,100565.00
2018-08-18T07:00:20.812Z,100567.00
2018-08-18T07:02:50.972Z,100564.00
2018-08-18T07:05:21.481Z,100564.00
2018-08-18T07:07:51.619Z,100567.00
2018-08-18T07:10:35.442Z,100568.00
2018-08-18T07:13:07.058Z,100572.00
2018-08-18T07:15:38.453Z,100572.00
2018-08-18T07:18:10.826Z,100571.00
2018-08-18T07:20:41.146Z,100574.00
2018-08-18T07:23:11.211Z,100571.00
2018-08-18T07:25:50.132Z,100573.00
2018-08-18T07:28:21.852Z,100569.00
2018-08-18T07:30:52.128Z,100568.00
2018-08-18T07:33:22.352Z,100572.00
2018-08-18T07:35:52.496Z,100571.00
2018-08-18T07:38:22.605Z,100571.00
2018-08-18T07:40:54.647Z,100571.00
2018-08-18T07:43:33.564Z,100575.00
2018-08-18T07:46:05.272Z,100576.00
2018-08-18T07:48:35.328Z,100579.00
2018-08-18T07:51:05.540Z,100581.00
2018-08-18T07:53:35.642Z,100582.00
2018-08-18T07:56:05.820Z,100583.00
2018-08-18T07:58:38.297Z,100585.00
2018-08-18T08:01:08.767Z,100585.00
2018-08-18T08:03:38.835Z,100590.00
2018-08-18T08:06:09.204Z,100593.00
2018-08-18T08:08:44.328Z,100590.00
2018-08-18T08:11:15.227Z,100598.00
2018-08-18T08:13:45.287Z,100602.00
2018-08-18T08:16:15.392Z,100599.00
2018-08-18T08:18:45.460Z,100597.00
2018-08-18T08:21:15.628Z,100598.00
2018-08-18T08:23:45.732Z,100595.00
2018-08-18T08:26:15.903Z,100595.00
2018-08-18T08:28:45.978Z,100593.00
2018-08-18T08:31:16.146Z,100594.00
2018-08-18T08:33:46.209Z,100590.00
2018-08-18T08:36:17.492Z,100589.00
2018-08-18T08:38:59.389Z,100584.00
2018-08-18T08:41:31.670Z,100586.00
2018-08-18T08:44:02.057Z,100583.00
2018-08-18T08:46:32.173Z,100589.00
2018-08-18T08:49:02.633Z,100589.00
2018-08-18T08:51:32.793Z,100585.00
2018-08-18T08:54:02.880Z,100581.00
2018-08-18T08:56:38.169Z,100583.00
2018-08-18T08:59:08.261Z,100583.00
2018-08-18T09:01:38.383Z,100581.00
2018-08-18T09:04:08.464Z,100584.00
2018-08-18T09:06:42.615Z,100582.00
2018-08-18T09:09:12.695Z,100579.00
2018-08-18T09:11:42.830Z,100577.00
2018-08-18T09:14:13.024Z,100575.00
2018-08-18T09:16:43.139Z,100574.00
2018-08-18T09:19:13.255Z,100571.00
2018-08-18T09:21:50.233Z,100571.00
2018-08-18T09:24:21.612Z,100575.00
2018-08-18T09:26:53.379Z,100574.00
2018-08-18T09:29:24.279Z,100572.00
2018-08-18T09:31:54.520Z,100572.00
2018-08-18T09:34:24.623Z,100573.00
2018-08-18T09:36:54.760Z,100572.00
2018-08-18T09:39:32.807Z,100566.00
2018-08-18T09:42:05.348Z,100570.00
2018-08-18T09:44:36.886Z,100565.00
2018-08-18T09:47:07.207Z,100559.00
2018-08-18T09:49:37.317Z,100562.00
2018-08-18T09:52:09.133Z,100559.00
2018-08-18T09:54:39.232Z,100566.00
2018-08-18T09:57:09.400Z,100555.00
2018-08-18T09:59:39.584Z,100552.00
2018-08-18T10:02:11.833Z,100553.00
2018-08-18T10:04:42.010Z,100555.00
2018-08-18T10:07:12.265Z,100555.00
2018-08-18T10:09:42.383Z,100550.00
2018-08-18T10:12:12.464Z,100556.00
2018-08-18T10:14:42.565Z,100551.00
2018-08-18T10:17:12.635Z,100550.00
2018-08-18T10:19:42.765Z,100553.00
2018-08-18T10:22:12.842Z,100555.00
2018-08-18T10:24:42.958Z,100553.00
2018-08-18T10:27:13.057Z,100549.00
2018-08-18T10:29:43.199Z,100547.00
2018-08-18T10:32:13.263Z,100548.00
2018-08-18T10:34:43.373Z,100550.00
2018-08-18T10:37:14.687Z,100550.00
2018-08-18T10:39:44.809Z,100552.00
2018-08-18T10:42:21.736Z,100555.00
2018-08-18T10:44:56.871Z,100549.00
2018-08-18T10:47:26.944Z,100547.00
2018-08-18T10:50:13.700Z,100544.00
2018-08-18T10:52:59.862Z,100543.00
2018-08-18T10:55:29.977Z,100546.00
2018-08-18T10:58:04.758Z,100537.00
2018-08-18T11:00:35.795Z,100544.00
2018-08-18T11:03:07.935Z,100547.00
2018-08-18T11:05:38.060Z,100546.00
2018-08-18T11:08:09.128Z,100547.00
2018-08-18T11:10:42.344Z,100550.00
2018-08-18T11:13:12.439Z,100548.00
2018-08-18T11:15:43.390Z,100545.00
2018-08-18T11:18:13.701Z,100546.00
2018-08-18T11:20:43.835Z,100547.00
2018-08-18T11:23:14.833Z,100539.00
2018-08-18T11:25:55.889Z,100536.00
2018-08-18T11:28:26.021Z,100538.00
2018-08-18T11:30:56.388Z,100538.00
2018-08-18T11:33:41.933Z,100538.00
2018-08-18T11:36:12.807Z,100544.00
2018-08-18T11:38:42.886Z,100536.00
2018-08-18T11:41:13.047Z,100535.00
2018-08-18T11:43:50.089Z,100535.00
2018-08-18T11:46:20.201Z,100538.00
2018-08-18T11:48:50.272Z,100534.00
2018-08-18T11:51:20.429Z,100540.00
2018-08-18T11:54:01.200Z,100540.00
2018-08-18T11:56:33.383Z,100534.00
2018-08-18T11:59:13.655Z,100532.00
2018-08-18T12:01:47.194Z,100529.00
2018-08-18T12:04:17.962Z,100521.00
2018-08-18T12:06:53.236Z,100520.00
2018-08-18T12:09:23.639Z,100513.00
2018-08-18T12:11:53.867Z,100510.00
2018-08-18T12:14:23.969Z,100515.00
2018-08-18T12:16:54.103Z,100510.00
2018-08-18T12:19:24.286Z,100507.00
2018-08-18T12:21:55.575Z,100505.00
2018-08-18T12:24:25.643Z,100514.00
2018-08-18T12:27:10.571Z,100497.00
2018-08-18T12:29:40.671Z,100497.00
2018-08-18T12:32:41.528Z,100498.00
2018-08-18T12:35:11.597Z,100500.00
2018-08-18T12:37:41.724Z,100494.00
2018-08-18T12:40:11.824Z,100497.00
2018-08-18T12:42:43.836Z,100491.00
2018-08-18T12:45:13.927Z,100488.00
2018-08-18T12:48:01.509Z,100484.00
2018-08-18T12:50:32.767Z,100476.00
2018-08-18T12:53:02.936Z,100475.00
2018-08-18T12:55:33.005Z,100479.00
2018-08-18T12:58:03.140Z,100479.00
2018-08-18T13:00:33.206Z,100470.00
2018-08-18T13:03:03.312Z,100467.00
2018-08-18T13:05:33.423Z,100465.00
2018-08-18T13:08:03.583Z,100468.00
2018-08-18T13:10:33.657Z,100466.00
2018-08-18T13:13:03.829Z,100469.00
2018-08-18T13:15:33.942Z,100463.00
2018-08-18T13:18:04.083Z,100465.00
2018-08-18T13:20:34.148Z,100457.00
2018-08-18T13:23:04.285Z,100449.00
2018-08-18T13:25:34.380Z,100449.00
2018-08-18T13:28:06.369Z,100446.00
2018-08-18T13:30:36.431Z,100447.00
2018-08-18T13:33:06.617Z,100451.00
2018-08-18T13:35:36.669Z,100450.00
2018-08-18T13:38:11.760Z,100445.00
2018-08-18T13:40:41.865Z,100439.00
2018-08-18T13:43:11.990Z,100446.00
2018-08-18T13:45:46.047Z,100436.00
2018-08-18T13:48:16.114Z,100443.00
2018-08-18T13:50:46.319Z,100447.00
2018-08-18T13:53:16.423Z,100443.00
2018-08-18T13:55:46.583Z,100433.00
2018-08-18T13:58:16.651Z,100428.00
2018-08-18T14:00:46.827Z,100431.00
2018-08-18T14:03:28.305Z,100423.00
2018-08-18T14:05:58.429Z,100425.00
2018-08-18T14:08:28.548Z,100423.00
2018-08-18T14:10:58.696Z,100413.00
2018-08-18T14:13:30.086Z,100417.00
2018-08-18T14:16:00.209Z,100414.00
2018-08-18T14:18:30.420Z,100409.00
2018-08-18T14:21:06.591Z,100411.00
2018-08-18T14:23:36.948Z,100404.00
2018-08-18T14:26:07.097Z,100407.00
2018-08-18T14:28:37.220Z,100409.00
2018-08-18T14:31:07.369Z,100408.00
2018-08-18T14:33:37.452Z,100406.00
2018-08-18T14:36:13.007Z,100407.00
2018-08-18T14:38:45.160Z,100409.00
2018-08-18T14:41:19.784Z,100411.00
2018-08-18T14:43:49.847Z,100408.00
2018-08-18T14:46:20.004Z,100403.00
2018-08-18T14:48:50.083Z,100406.00
2018-08-18T14:51:20.272Z,100401.00
2018-08-18T14:53:50.328Z,100397.00
2018-08-18T14:56:20.445Z,100395.00
2018-08-18T14:58:50.520Z,100397.00
2018-08-18T15:01:20.685Z,100397.00
2018-08-18T15:03:50.773Z,100397.00
2018-08-18T15:06:20.892Z,100404.00
2018-08-18T15:08:50.986Z,100404.00
2018-08-18T15:11:21.100Z,100398.00
2018-08-18T15:13:51.207Z,100406.00
2018-08-18T15:16:21.279Z,100404.00
2018-08-18T15:18:51.396Z,100404.00
2018-08-18T15:21:21.458Z,100403.00
2018-08-18T15:23:51.576Z,100395.00
2018-08-18T15:26:21.664Z,100395.00
2018-08-18T15:28:51.779Z,100393.00
2018-08-18T15:31:21.876Z,100400.00
2018-08-18T15:33:51.992Z,100393.00
2018-08-18T15:36:33.675Z,100389.00
2018-08-18T15:39:03.900Z,100388.00
2018-08-18T15:41:34.933Z,100386.00
2018-08-18T15:44:09.360Z,100385.00
2018-08-18T15:46:39.431Z,100385.00
2018-08-18T15:49:09.785Z,100384.00
2018-08-18T15:51:40.568Z,100380.00
2018-08-18T15:54:10.821Z,100377.00
2018-08-18T15:56:41.677Z,100375.00
2018-08-18T15:59:11.992Z,100376.00
2018-08-18T16:01:42.163Z,100375.00
2018-08-18T16:04:12.329Z,100379.00
2018-08-18T16:06:42.406Z,100374.00
2018-08-18T16:09:12.520Z,100373.00
2018-08-18T16:11:42.599Z,100372.00
2018-08-18T16:14:12.716Z,100372.00
2018-08-18T16:17:00.663Z,100374.00
2018-08-18T16:19:35.431Z,100368.00
2018-08-18T16:22:06.316Z,100366.00
2018-08-18T16:24:46.523Z,100366.00
2018-08-18T16:27:16.603Z,100370.00
2018-08-18T16:29:46.699Z,100363.00
2018-08-18T16:32:24.617Z,100359.00
2018-08-18T16:35:02.802Z,100360.00
2018-08-18T16:37:35.939Z,100360.00
2018-08-18T16:40:06.093Z,100360.00
2018-08-18T16:42:36.261Z,100361.00
2018-08-18T16:45:07.087Z,100363.00
2018-08-18T16:47:40.582Z,100361.00
2018-08-18T16:50:10.745Z,100359.00
2018-08-18T16:52:41.043Z,100366.00
2018-08-18T16:55:11.180Z,100361.00
2018-08-18T16:57:41.261Z,100366.00
2018-08-18T17:00:11.524Z,100365.00
2018-08-18T17:02:41.679Z,100364.00
2018-08-18T17:05:11.853Z,100365.00
2018-08-18T17:07:43.834Z,100367.00
2018-08-18T17:10:13.904Z,100365.00
2018-08-18T17:12:44.065Z,100370.00
2018-08-18T17:15:14.145Z,100370.00
2018-08-18T17:17:44.255Z,100372.00
2018-08-18T17:20:14.412Z,100370.00
2018-08-18T17:22:46.112Z,100369.00
2018-08-18T17:25:16.168Z,100371.00
2018-08-18T17:27:46.280Z,100371.00
2018-08-18T17:30:16.464Z,100371.00
2018-08-18T17:32:46.526Z,100373.00
2018-08-18T17:35:16.589Z,100378.00
2018-08-18T17:37:46.735Z,100378.00
2018-08-18T17:40:16.809Z,100378.00
2018-08-18T17:42:46.946Z,100382.00
2018-08-18T17:45:17.040Z,100378.00
2018-08-18T17:47:51.215Z,100380.00
2018-08-18T17:50:21.348Z,100381.00
2018-08-18T17:52:51.504Z,100378.00
2018-08-18T17:55:21.642Z,100378.00
2018-08-18T17:57:51.774Z,100383.00
2018-08-18T18:00:23.615Z,100384.00
2018-08-18T18:02:56.677Z,100388.00
2018-08-18T18:05:32.208Z,100401.00
2018-08-18T18:08:06.879Z,100403.00
2018-08-18T18:10:38.500Z,100400.00
2018-08-18T18:13:17.934Z,100403.00
2018-08-18T18:15:48.811Z,100408.00
2018-08-18T18:18:20.167Z,100416.00
2018-08-18T18:20:51.571Z,100412.00
2018-08-18T18:23:22.152Z,100416.00
2018-08-18T18:25:52.215Z,100420.00
2018-08-18T18:28:22.383Z,100421.00
2018-08-18T18:30:53.737Z,100423.00
2018-08-18T18:33:23.981Z,100425.00
2018-08-18T18:35:54.136Z,100425.00
2018-08-18T18:38:24.260Z,100425.00
2018-08-18T18:40:54.341Z,100426.00
2018-08-18T18:43:24.488Z,100430.00
2018-08-18T18:45:54.918Z,100436.00
2018-08-18T18:48:24.948Z,100437.00
2018-08-18T18:50:55.096Z,100441.00
2018-08-18T18:53:25.280Z,100446.00
2018-08-18T18:55:55.488Z,100449.00
2018-08-18T18:58:25.752Z,100447.00
2018-08-18T19:01:01.033Z,100452.00
2018-08-18T19:03:31.128Z,100455.00
2018-08-18T19:06:01.248Z,100457.00
2018-08-18T19:08:31.333Z,100461.00
2018-08-18T19:11:04.675Z,100462.00
2018-08-18T19:13:34.744Z,100465.00
2018-08-18T19:16:04.923Z,100465.00
2018-08-18T19:18:34.987Z,100478.00
2018-08-18T19:21:05.148Z,100484.00
2018-08-18T19:23:35.219Z,100484.00
2018-08-18T19:26:05.353Z,100492.00
2018-08-18T19:28:35.501Z,100491.00
2018-08-18T19:31:05.592Z,100491.00
2018-08-18T19:33:35.656Z,100495.00
2018-08-18T19:36:05.792Z,100496.00
2018-08-18T19:38:35.859Z,100498.00
2018-08-18T19:41:05.969Z,100498.00
2018-08-18T19:43:36.652Z,100499.00
2018-08-18T19:46:06.764Z,100500.00
2018-08-18T19:48:36.843Z,100509.00
2018-08-18T19:51:07.096Z,100512.00
2018-08-18T19:53:37.187Z,100511.00
2018-08-18T19:56:11.004Z,100515.00
2018-08-18T19:58:41.112Z,100517.00
2018-08-18T20:01:11.230Z,100518.00
2018-08-18T20:03:41.274Z,100521.00
2018-08-18T20:06:16.238Z,100522.00
2018-08-18T20:08:46.399Z,100528.00
2018-08-18T20:11:16.603Z,100529.00
2018-08-18T20:13:46.672Z,100528.00
2018-08-18T20:16:16.804Z,100527.00
2018-08-18T20:18:46.940Z,100529.00
2018-08-18T20:21:17.017Z,100529.00
2018-08-18T20:23:47.126Z,100531.00
2018-08-18T20:26:17.194Z,100534.00
2018-08-18T20:28:47.303Z,100534.00
2018-08-18T20:31:17.439Z,100539.00
2018-08-18T20:33:49.563Z,100544.00
2018-08-18T20:36:19.623Z,100544.00
2018-08-18T20:38:49.762Z,100544.00
2018-08-18T20:41:19.815Z,100541.00
2018-08-18T20:43:49.931Z,100545.00
2018-08-18T20:46:20.011Z,100546.00
2018-08-18T20:48:50.127Z,100547.00
2018-08-18T20:51:24.296Z,100550.00
2018-08-18T20:53:54.420Z,100554.00
2018-08-18T20:56:24.494Z,100565.00
2018-08-18T20:58:54.624Z,100571.00
2018-08-18T21:01:24.679Z,100571.00
2018-08-18T21:03:54.860Z,100572.00
2018-08-18T21:06:24.961Z,100573.00
2018-08-18T21:08:55.106Z,100569.00
2018-08-18T21:11:25.164Z,100573.00
2018-08-18T21:13:56.166Z,100575.00
2018-08-18T21:16:26.683Z,100575.00
2018-08-18T21:18:56.817Z,100581.00
2018-08-18T21:21:31.856Z,100580.00
2018-08-18T21:24:01.997Z,100580.00
2018-08-18T21:26:32.085Z,100581.00
2018-08-18T21:29:02.265Z,100580.00
2018-08-18T21:31:33.282Z,100584.00
2018-08-18T21:34:04.724Z,100582.00
2018-08-18T21:36:35.239Z,100586.00
2018-08-18T21:39:09.488Z,100592.00
2018-08-18T21:41:42.599Z,100591.00
2018-08-18T21:44:14.175Z,100588.00
2018-08-18T21:46:44.371Z,100588.00
2018-08-18T21:49:14.599Z,100586.00
2018-08-18T21:51:44.698Z,100586.00
2018-08-18T21:54:14.802Z,100587.00
2018-08-18T21:56:44.898Z,100588.00
2018-08-18T21:59:15.222Z,100586.00
2018-08-18T22:01:45.603Z,100587.00
2018-08-18T22:04:15.707Z,100588.00
2018-08-18T22:06:45.804Z,100589.00
2018-08-18T22:09:25.531Z,100592.00
2018-08-18T22:11:55.609Z,100592.00
2018-08-18T22:14:25.751Z,100588.00
2018-08-18T22:16:56.261Z,100591.00
2018-08-18T22:19:27.360Z,100591.00
2018-08-18T22:21:57.449Z,100588.00
2018-08-18T22:24:27.535Z,100586.00
2018-08-18T22:26:57.640Z,100590.00
2018-08-18T22:29:27.759Z,100593.00
2018-08-18T22:31:57.859Z,100591.00
2018-08-18T22:34:27.924Z,100588.00
2018-08-18T22:37:03.968Z,100587.00
2018-08-18T22:39:34.048Z,100589.00
2018-08-18T22:42:04.176Z,100589.00
2018-08-18T22:44:34.237Z,100586.00
2018-08-18T22:47:04.960Z,100584.00
2018-08-18T22:49:35.021Z,100576.00
2018-08-18T22:52:05.477Z,100573.00
2018-08-18T22:54:35.562Z,100571.00
2018-08-18T22:57:06.318Z,100574.00
2018-08-18T22:59:36.400Z,100570.00
2018-08-18T23:02:06.724Z,100567.00
2018-08-18T23:04:38.152Z,100571.00
2018-08-18T23:07:09.143Z,100571.00
2018-08-18T23:09:39.211Z,100565.00
2018-08-18T23:12:09.681Z,100565.00
2018-08-18T23:14:40.795Z,100564.00
2018-08-18T23:17:12.341Z,100564.00
2018-08-18T23:19:42.399Z,100568.00
2018-08-18T23:22:29.177Z,100569.00
2018-08-18T23:24:59.236Z,100570.00
2018-08-18T23:27:29.681Z,100568.00
2018-08-18T23:29:59.737Z,100563.00
2018-08-18T23:32:29.896Z,100564.00
2018-08-18T23:34:59.972Z,100562.00
2018-08-18T23:37:30.082Z,100568.00
2018-08-18T23:40:00.201Z,100566.00
2018-08-18T23:42:30.312Z,100566.00
2018-08-18T23:45:00.428Z,100562.00
2018-08-18T23:47:30.552Z,100567.00
2018-08-18T23:50:00.668Z,100569.00
2018-08-18T23:52:30.809Z,100567.00
2018-08-18T23:55:00.949Z,100571.00
2018-08-18T23:57:31.004Z,100563.00
